sensor_id;sensor_type;location;lat;lon;timestamp;pressure;altitude;pressure_sealevel;temperature;humidity
10474;BME280;5284;50.446;7.904;2023-02-22T00:03:12;98369.16;;;3.26;100.00
10474;BME280;5284;50.446;7.904;2023-02-22T00:08:19;98357.06;;;3.22;100.00
10474;BME280;5284;50.446;7.904;2023-02-22T00:13:22;98364.06;;;3.23;100.00
10474;BME280;5284;50.446;7.904;2023-02-22T00:18:26;98362.63;;;3.18;100.00
10474;BME280;5284;50.446;7.904;2023-02-22T00:23:31;98367.69;;;3.07;100.00
10474;BME280;5284;50.446;7.904;2023-02-22T00:28:35;98354.25;;;2.96;100.00
10474;BME280;5284;50.446;7.904;2023-02-22T00:33:39;98355.97;;;2.97;100.00
10474;BME280;5284;50.446;7.904;2023-02-22T00:38:44;98350.03;;;2.94;100.00
10474;BME280;5284;50.446;7.904;2023-02-22T00:43:48;98344.09;;;2.90;100.00
10474;BME280;5284;50.446;7.904;2023-02-22T00:48:53;98341.25;;;2.79;100.00
10474;BME280;5284;50.446;7.904;2023-02-22T00:53:57;98339.78;;;2.74;100.00
10474;BME280;5284;50.446;7.904;2023-02-22T00:59:00;98338.25;;;2.85;100.00
10474;BME280;5284;50.446;7.904;2023-02-22T01:04:03;98344.69;;;2.80;100.00
10474;BME280;5284;50.446;7.904;2023-02-22T01:09:10;98329.09;;;2.77;100.00
10474;BME280;5284;50.446;7.904;2023-02-22T01:14:14;98322.38;;;2.71;100.00
10474;BME280;5284;50.446;7.904;2023-02-22T01:19:18;98316.53;;;2.66;100.00
10474;BME280;5284;50.446;7.904;2023-02-22T01:24:23;98316.06;;;2.60;100.00
10474;BME280;5284;50.446;7.904;2023-02-22T01:29:28;98311.13;;;2.54;100.00
10474;BME280;5284;50.446;7.904;2023-02-22T01:34:31;98306.72;;;2.54;100.00
10474;BME280;5284;50.446;7.904;2023-02-22T01:39:36;98293.06;;;2.48;100.00
10474;BME280;5284;50.446;7.904;2023-02-22T01:44:40;98290.53;;;2.46;100.00
10474;BME280;5284;50.446;7.904;2023-02-22T01:49:45;98290.72;;;2.43;100.00
10474;BME280;5284;50.446;7.904;2023-02-22T01:54:53;98279.75;;;2.35;100.00
10474;BME280;5284;50.446;7.904;2023-02-22T02:00:01;98272.78;;;2.34;100.00
10474;BME280;5284;50.446;7.904;2023-02-22T02:05:13;98273.81;;;2.32;100.00
10474;BME280;5284;50.446;7.904;2023-02-22T02:10:18;98268.97;;;2.40;100.00
10474;BME280;5284;50.446;7.904;2023-02-22T02:15:25;98268.72;;;2.44;100.00
10474;BME280;5284;50.446;7.904;2023-02-22T02:20:38;98266.56;;;2.51;100.00
10474;BME280;5284;50.446;7.904;2023-02-22T02:26:18;98259.84;;;2.61;100.00
10474;BME280;5284;50.446;7.904;2023-02-22T02:31:53;98259.56;;;2.65;100.00
10474;BME280;5284;50.446;7.904;2023-02-22T02:37:02;98261.69;;;2.74;100.00
10474;BME280;5284;50.446;7.904;2023-02-22T02:42:14;98252.66;;;2.78;100.00
10474;BME280;5284;50.446;7.904;2023-02-22T02:47:22;98251.63;;;2.81;100.00
10474;BME280;5284;50.446;7.904;2023-02-22T02:52:30;98251.44;;;2.84;100.00
10474;BME280;5284;50.446;7.904;2023-02-22T02:57:37;98251.88;;;2.92;100.00
10474;BME280;5284;50.446;7.904;2023-02-22T03:02:53;98242.72;;;2.97;100.00
10474;BME280;5284;50.446;7.904;2023-02-22T03:08:01;98246.13;;;2.99;100.00
10474;BME280;5284;50.446;7.904;2023-02-22T03:13:14;98241.72;;;2.99;100.00
10474;BME280;5284;50.446;7.904;2023-02-22T03:18:24;98258.75;;;3.08;100.00
10474;BME280;5284;50.446;7.904;2023-02-22T03:23:33;98246.53;;;3.07;100.00
10474;BME280;5284;50.446;7.904;2023-02-22T03:28:40;98251.50;;;3.11;100.00
10474;BME280;5284;50.446;7.904;2023-02-22T03:33:49;98245.97;;;3.16;100.00
10474;BME280;5284;50.446;7.904;2023-02-22T03:38:57;98242.22;;;3.20;100.00
10474;BME280;5284;50.446;7.904;2023-02-22T03:44:04;98241.00;;;3.25;100.00
10474;BME280;5284;50.446;7.904;2023-02-22T03:49:13;98240.50;;;3.33;100.00
10474;BME280;5284;50.446;7.904;2023-02-22T03:54:18;98241.25;;;3.35;100.00
10474;BME280;5284;50.446;7.904;2023-02-22T03:59:22;98234.13;;;3.23;100.00
10474;BME280;5284;50.446;7.904;2023-02-22T04:04:29;98236.44;;;3.13;100.00
10474;BME280;5284;50.446;7.904;2023-02-22T04:09:32;98240.97;;;3.11;100.00
10474;BME280;5284;50.446;7.904;2023-02-22T04:14:35;98232.41;;;3.08;100.00
10474;BME280;5284;50.446;7.904;2023-02-22T04:19:39;98237.09;;;3.03;100.00
10474;BME280;5284;50.446;7.904;2023-02-22T04:24:42;98233.53;;;3.04;100.00
10474;BME280;5284;50.446;7.904;2023-02-22T04:29:46;98226.09;;;2.97;100.00
10474;BME280;5284;50.446;7.904;2023-02-22T04:34:50;98221.66;;;2.97;100.00
10474;BME280;5284;50.446;7.904;2023-02-22T04:39:53;98215.84;;;2.92;100.00
10474;BME280;5284;50.446;7.904;2023-02-22T04:44:56;98213.56;;;3.00;100.00
10474;BME280;5284;50.446;7.904;2023-02-22T04:50:01;98216.03;;;3.03;100.00
10474;BME280;5284;50.446;7.904;2023-02-22T04:55:05;98217.72;;;3.04;100.00
10474;BME280;5284;50.446;7.904;2023-02-22T05:00:14;98219.06;;;3.11;100.00
10474;BME280;5284;50.446;7.904;2023-02-22T05:05:20;98215.19;;;3.16;100.00
10474;BME280;5284;50.446;7.904;2023-02-22T05:10:23;98209.53;;;3.22;100.00
10474;BME280;5284;50.446;7.904;2023-02-22T05:15:26;98215.84;;;3.34;100.00
10474;BME280;5284;50.446;7.904;2023-02-22T05:20:32;98215.59;;;3.38;100.00
10474;BME280;5284;50.446;7.904;2023-02-22T05:25:36;98211.25;;;3.37;100.00
10474;BME280;5284;50.446;7.904;2023-02-22T05:30:39;98211.63;;;3.45;100.00
10474;BME280;5284;50.446;7.904;2023-02-22T05:35:44;98207.97;;;3.48;100.00
10474;BME280;5284;50.446;7.904;2023-02-22T05:40:46;98210.41;;;3.51;100.00
10474;BME280;5284;50.446;7.904;2023-02-22T05:45:49;98210.78;;;3.45;100.00
10474;BME280;5284;50.446;7.904;2023-02-22T05:50:53;98212.28;;;3.49;100.00
10474;BME280;5284;50.446;7.904;2023-02-22T05:55:56;98201.81;;;3.47;100.00
10474;BME280;5284;50.446;7.904;2023-02-22T06:00:59;98201.00;;;3.47;100.00
10474;BME280;5284;50.446;7.904;2023-02-22T06:06:05;98202.38;;;3.52;100.00
10474;BME280;5284;50.446;7.904;2023-02-22T06:11:09;98198.91;;;3.52;100.00
10474;BME280;5284;50.446;7.904;2023-02-22T06:16:12;98203.13;;;3.54;100.00
10474;BME280;5284;50.446;7.904;2023-02-22T06:21:16;98202.38;;;3.52;100.00
10474;BME280;5284;50.446;7.904;2023-02-22T06:26:19;98202.88;;;3.45;100.00
10474;BME280;5284;50.446;7.904;2023-02-22T06:31:23;98212.84;;;3.54;100.00
10474;BME280;5284;50.446;7.904;2023-02-22T06:36:27;98211.81;;;3.42;100.00
10474;BME280;5284;50.446;7.904;2023-02-22T06:41:30;98206.56;;;3.28;100.00
10474;BME280;5284;50.446;7.904;2023-02-22T06:46:33;98210.31;;;3.24;100.00
10474;BME280;5284;50.446;7.904;2023-02-22T06:51:37;98210.59;;;3.34;100.00
10474;BME280;5284;50.446;7.904;2023-02-22T06:56:40;98202.59;;;3.35;100.00
10474;BME280;5284;50.446;7.904;2023-02-22T07:01:43;98204.94;;;3.40;100.00
10474;BME280;5284;50.446;7.904;2023-02-22T07:06:48;98218.28;;;3.37;100.00
10474;BME280;5284;50.446;7.904;2023-02-22T07:11:52;98213.88;;;3.51;100.00
10474;BME280;5284;50.446;7.904;2023-02-22T07:16:56;98212.94;;;3.38;100.00
10474;BME280;5284;50.446;7.904;2023-02-22T07:22:01;98216.97;;;3.58;100.00
10474;BME280;5284;50.446;7.904;2023-02-22T07:27:04;98222.69;;;3.78;100.00
10474;BME280;5284;50.446;7.904;2023-02-22T07:32:10;98215.25;;;3.85;100.00
10474;BME280;5284;50.446;7.904;2023-02-22T07:37:15;98218.50;;;3.88;100.00
10474;BME280;5284;50.446;7.904;2023-02-22T07:42:18;98212.59;;;3.85;100.00
10474;BME280;5284;50.446;7.904;2023-02-22T07:47:21;98211.34;;;3.90;100.00
10474;BME280;5284;50.446;7.904;2023-02-22T07:52:26;98215.19;;;3.99;100.00
10474;BME280;5284;50.446;7.904;2023-02-22T07:57:29;98216.34;;;3.95;100.00
10474;BME280;5284;50.446;7.904;2023-02-22T08:02:32;98213.16;;;3.90;100.00
10474;BME280;5284;50.446;7.904;2023-02-22T08:07:37;98214.22;;;4.14;100.00
10474;BME280;5284;50.446;7.904;2023-02-22T08:12:40;98219.91;;;4.34;100.00
10474;BME280;5284;50.446;7.904;2023-02-22T08:17:42;98215.13;;;4.27;100.00
10474;BME280;5284;50.446;7.904;2023-02-22T08:22:47;98220.00;;;4.33;100.00
10474;BME280;5284;50.446;7.904;2023-02-22T08:27:51;98213.19;;;4.43;100.00
10474;BME280;5284;50.446;7.904;2023-02-22T08:33:00;98205.72;;;4.61;100.00
10474;BME280;5284;50.446;7.904;2023-02-22T08:38:15;98209.84;;;4.65;100.00
10474;BME280;5284;50.446;7.904;2023-02-22T08:43:19;98204.53;;;4.53;100.00
10474;BME280;5284;50.446;7.904;2023-02-22T08:48:23;98206.78;;;4.71;100.00
10474;BME280;5284;50.446;7.904;2023-02-22T08:53:28;98196.03;;;4.87;100.00
10474;BME280;5284;50.446;7.904;2023-02-22T08:58:33;98195.00;;;4.89;100.00
10474;BME280;5284;50.446;7.904;2023-02-22T09:03:36;98202.19;;;4.87;100.00
10474;BME280;5284;50.446;7.904;2023-02-22T09:08:40;98190.00;;;4.85;100.00
10474;BME280;5284;50.446;7.904;2023-02-22T09:13:43;98195.09;;;5.00;100.00
10474;BME280;5284;50.446;7.904;2023-02-22T09:18:46;98196.56;;;5.04;100.00
10474;BME280;5284;50.446;7.904;2023-02-22T09:23:50;98189.94;;;5.11;100.00
10474;BME280;5284;50.446;7.904;2023-02-22T09:28:55;98188.13;;;5.24;100.00
10474;BME280;5284;50.446;7.904;2023-02-22T09:33:58;98182.97;;;5.10;100.00
10474;BME280;5284;50.446;7.904;2023-02-22T09:39:06;98173.44;;;5.20;100.00
10474;BME280;5284;50.446;7.904;2023-02-22T09:44:15;98176.69;;;5.36;100.00
10474;BME280;5284;50.446;7.904;2023-02-22T09:49:23;98178.50;;;5.36;100.00
10474;BME280;5284;50.446;7.904;2023-02-22T09:54:35;98170.56;;;5.48;100.00
10474;BME280;5284;50.446;7.904;2023-02-22T09:59:44;98172.41;;;5.59;100.00
10474;BME280;5284;50.446;7.904;2023-02-22T10:04:51;98160.28;;;5.56;100.00
10474;BME280;5284;50.446;7.904;2023-02-22T10:10:00;98160.28;;;5.56;100.00
10474;BME280;5284;50.446;7.904;2023-02-22T10:20:49;98159.59;;;5.90;100.00
10474;BME280;5284;50.446;7.904;2023-02-22T10:26:07;98149.88;;;5.78;100.00
10474;BME280;5284;50.446;7.904;2023-02-22T10:31:20;98150.91;;;5.88;100.00
10474;BME280;5284;50.446;7.904;2023-02-22T10:36:25;98147.72;;;6.19;100.00
10474;BME280;5284;50.446;7.904;2023-02-22T10:41:31;98143.44;;;6.40;100.00
10474;BME280;5284;50.446;7.904;2023-02-22T10:46:35;98138.81;;;6.54;100.00
10474;BME280;5284;50.446;7.904;2023-02-22T10:51:40;98143.19;;;6.66;100.00
10474;BME280;5284;50.446;7.904;2023-02-22T10:56:48;98137.69;;;6.80;100.00
10474;BME280;5284;50.446;7.904;2023-02-22T11:01:51;98136.09;;;6.67;100.00
10474;BME280;5284;50.446;7.904;2023-02-22T11:07:17;98130.13;;;6.87;100.00
10474;BME280;5284;50.446;7.904;2023-02-22T11:12:29;98128.91;;;7.13;100.00
10474;BME280;5284;50.446;7.904;2023-02-22T11:17:33;98124.63;;;7.23;100.00
10474;BME280;5284;50.446;7.904;2023-02-22T11:22:38;98122.06;;;7.54;100.00
10474;BME280;5284;50.446;7.904;2023-02-22T11:27:44;98118.91;;;7.60;100.00
10474;BME280;5284;50.446;7.904;2023-02-22T11:32:51;98120.69;;;7.92;100.00
10474;BME280;5284;50.446;7.904;2023-02-22T11:38:08;98103.09;;;8.23;100.00
10474;BME280;5284;50.446;7.904;2023-02-22T11:43:16;98106.28;;;8.89;100.00
10474;BME280;5284;50.446;7.904;2023-02-22T11:48:19;98104.94;;;9.04;100.00
10474;BME280;5284;50.446;7.904;2023-02-22T11:53:28;98104.25;;;8.82;100.00
10474;BME280;5284;50.446;7.904;2023-02-22T11:58:43;98097.69;;;8.86;100.00
10474;BME280;5284;50.446;7.904;2023-02-22T12:09:31;98084.81;;;9.41;100.00
10474;BME280;5284;50.446;7.904;2023-02-22T12:14:44;98080.19;;;9.43;100.00
10474;BME280;5284;50.446;7.904;2023-02-22T12:19:52;98075.63;;;9.54;100.00
10474;BME280;5284;50.446;7.904;2023-02-22T12:25:01;98058.91;;;9.43;100.00
10474;BME280;5284;50.446;7.904;2023-02-22T12:35:22;98035.38;;;10.25;100.00
10474;BME280;5284;50.446;7.904;2023-02-22T12:40:31;98033.00;;;10.32;100.00
10474;BME280;5284;50.446;7.904;2023-02-22T12:45:42;98029.19;;;10.53;100.00
10474;BME280;5284;50.446;7.904;2023-02-22T12:50:53;98030.31;;;10.51;100.00
10474;BME280;5284;50.446;7.904;2023-02-22T12:56:01;98035.81;;;10.95;100.00
10474;BME280;5284;50.446;7.904;2023-02-22T13:01:12;98040.53;;;11.47;100.00
10474;BME280;5284;50.446;7.904;2023-02-22T13:06:27;98032.81;;;11.98;100.00
10474;BME280;5284;50.446;7.904;2023-02-22T13:11:35;98035.28;;;12.09;100.00
10474;BME280;5284;50.446;7.904;2023-02-22T13:16:47;98026.78;;;11.96;100.00
10474;BME280;5284;50.446;7.904;2023-02-22T13:21:56;98012.56;;;12.47;100.00
10474;BME280;5284;50.446;7.904;2023-02-22T13:27:05;98014.66;;;12.18;100.00
10474;BME280;5284;50.446;7.904;2023-02-22T13:32:22;98010.06;;;12.11;100.00
10474;BME280;5284;50.446;7.904;2023-02-22T13:37:55;98004.41;;;11.97;100.00
10474;BME280;5284;50.446;7.904;2023-02-22T13:54:05;97986.03;;;12.36;100.00
10474;BME280;5284;50.446;7.904;2023-02-22T13:59:22;97985.97;;;12.46;100.00
10474;BME280;5284;50.446;7.904;2023-02-22T14:04:46;97984.44;;;12.43;100.00
10474;BME280;5284;50.446;7.904;2023-02-22T14:09:51;97980.25;;;12.41;100.00
10474;BME280;5284;50.446;7.904;2023-02-22T14:15:15;97976.63;;;12.50;100.00
10474;BME280;5284;50.446;7.904;2023-02-22T14:20:32;97975.06;;;12.65;100.00
10474;BME280;5284;50.446;7.904;2023-02-22T14:25:40;97976.34;;;12.78;100.00
10474;BME280;5284;50.446;7.904;2023-02-22T14:30:44;97969.72;;;12.65;100.00
10474;BME280;5284;50.446;7.904;2023-02-22T14:35:49;97967.63;;;12.76;100.00
10474;BME280;5284;50.446;7.904;2023-02-22T14:40:55;97966.00;;;12.83;100.00
10474;BME280;5284;50.446;7.904;2023-02-22T14:46:01;97967.06;;;13.24;100.00
10474;BME280;5284;50.446;7.904;2023-02-22T14:51:14;97977.84;;;13.06;100.00
10474;BME280;5284;50.446;7.904;2023-02-22T14:56:27;97966.09;;;13.33;100.00
10474;BME280;5284;50.446;7.904;2023-02-22T15:01:37;97961.56;;;13.33;100.00
10474;BME280;5284;50.446;7.904;2023-02-22T15:07:07;97968.00;;;13.07;100.00
10474;BME280;5284;50.446;7.904;2023-02-22T15:12:22;97961.69;;;12.90;100.00
10474;BME280;5284;50.446;7.904;2023-02-22T15:17:26;97960.31;;;12.86;100.00
10474;BME280;5284;50.446;7.904;2023-02-22T15:22:34;97964.88;;;12.68;100.00
10474;BME280;5284;50.446;7.904;2023-02-22T15:27:39;97967.28;;;12.54;100.00
10474;BME280;5284;50.446;7.904;2023-02-22T15:32:47;97965.19;;;12.40;100.00
10474;BME280;5284;50.446;7.904;2023-02-22T15:38:16;97962.06;;;12.44;100.00
10474;BME280;5284;50.446;7.904;2023-02-22T15:43:22;97958.44;;;12.11;100.00
10474;BME280;5284;50.446;7.904;2023-02-22T15:48:28;97963.88;;;12.01;100.00
10474;BME280;5284;50.446;7.904;2023-02-22T15:53:41;97960.19;;;12.02;100.00
10474;BME280;5284;50.446;7.904;2023-02-22T15:58:46;97968.16;;;11.94;100.00
10474;BME280;5284;50.446;7.904;2023-02-22T16:03:51;97971.41;;;11.71;100.00
10474;BME280;5284;50.446;7.904;2023-02-22T16:08:58;97977.22;;;11.66;100.00
10474;BME280;5284;50.446;7.904;2023-02-22T16:14:04;97976.53;;;11.55;100.00
10474;BME280;5284;50.446;7.904;2023-02-22T16:19:28;97975.03;;;11.25;100.00
10474;BME280;5284;50.446;7.904;2023-02-22T16:24:35;97982.81;;;11.09;100.00
10474;BME280;5284;50.446;7.904;2023-02-22T16:29:38;97979.97;;;10.93;100.00
10474;BME280;5284;50.446;7.904;2023-02-22T16:34:41;97979.13;;;10.83;100.00
10474;BME280;5284;50.446;7.904;2023-02-22T16:39:45;97985.25;;;10.66;100.00
10474;BME280;5284;50.446;7.904;2023-02-22T16:44:48;97980.63;;;10.50;100.00
10474;BME280;5284;50.446;7.904;2023-02-22T16:49:51;97987.97;;;10.38;100.00
10474;BME280;5284;50.446;7.904;2023-02-22T16:54:55;97991.91;;;10.25;100.00
10474;BME280;5284;50.446;7.904;2023-02-22T16:59:58;97989.25;;;10.15;100.00
10474;BME280;5284;50.446;7.904;2023-02-22T17:05:01;97997.53;;;10.03;100.00
10474;BME280;5284;50.446;7.904;2023-02-22T17:10:05;97996.94;;;9.90;100.00
10474;BME280;5284;50.446;7.904;2023-02-22T17:15:15;97999.59;;;9.80;100.00
10474;BME280;5284;50.446;7.904;2023-02-22T17:20:21;98007.56;;;9.71;100.00
10474;BME280;5284;50.446;7.904;2023-02-22T17:25:36;98007.53;;;9.61;100.00
10474;BME280;5284;50.446;7.904;2023-02-22T17:30:39;98011.16;;;9.51;100.00
10474;BME280;5284;50.446;7.904;2023-02-22T17:35:45;98016.31;;;9.43;100.00
10474;BME280;5284;50.446;7.904;2023-02-22T17:40:49;98017.28;;;9.32;100.00
10474;BME280;5284;50.446;7.904;2023-02-22T17:45:53;98027.19;;;9.21;100.00
10474;BME280;5284;50.446;7.904;2023-02-22T17:50:56;98025.06;;;9.15;100.00
10474;BME280;5284;50.446;7.904;2023-02-22T17:56:05;98028.78;;;9.03;100.00
10474;BME280;5284;50.446;7.904;2023-02-22T18:01:18;98021.09;;;9.00;100.00
10474;BME280;5284;50.446;7.904;2023-02-22T18:06:24;98025.97;;;8.95;100.00
10474;BME280;5284;50.446;7.904;2023-02-22T18:11:29;98031.81;;;8.89;100.00
10474;BME280;5284;50.446;7.904;2023-02-22T18:16:33;98028.25;;;8.79;100.00
10474;BME280;5284;50.446;7.904;2023-02-22T18:21:37;98024.31;;;8.74;100.00
10474;BME280;5284;50.446;7.904;2023-02-22T18:26:41;98026.06;;;8.64;100.00
10474;BME280;5284;50.446;7.904;2023-02-22T18:31:44;98026.59;;;8.58;100.00
10474;BME280;5284;50.446;7.904;2023-02-22T18:36:47;98022.91;;;8.49;100.00
10474;BME280;5284;50.446;7.904;2023-02-22T18:41:52;98019.22;;;8.41;100.00
10474;BME280;5284;50.446;7.904;2023-02-22T18:46:54;98020.56;;;8.35;100.00
10474;BME280;5284;50.446;7.904;2023-02-22T18:51:57;98024.47;;;8.31;100.00
10474;BME280;5284;50.446;7.904;2023-02-22T18:57:01;98024.72;;;8.28;100.00
10474;BME280;5284;50.446;7.904;2023-02-22T19:02:05;98020.66;;;8.24;100.00
10474;BME280;5284;50.446;7.904;2023-02-22T19:07:08;98020.91;;;8.21;100.00
10474;BME280;5284;50.446;7.904;2023-02-22T19:12:19;98023.31;;;8.13;100.00
10474;BME280;5284;50.446;7.904;2023-02-22T19:17:23;98018.25;;;8.10;100.00
10474;BME280;5284;50.446;7.904;2023-02-22T19:22:26;98021.22;;;7.96;100.00
10474;BME280;5284;50.446;7.904;2023-02-22T19:27:34;98022.00;;;7.87;100.00
10474;BME280;5284;50.446;7.904;2023-02-22T19:32:37;98014.06;;;7.76;100.00
10474;BME280;5284;50.446;7.904;2023-02-22T19:37:45;98015.28;;;7.72;100.00
10474;BME280;5284;50.446;7.904;2023-02-22T19:42:51;98008.59;;;7.57;100.00
10474;BME280;5284;50.446;7.904;2023-02-22T19:47:54;98018.22;;;7.47;100.00
10474;BME280;5284;50.446;7.904;2023-02-22T19:52:57;98023.06;;;7.43;100.00
10474;BME280;5284;50.446;7.904;2023-02-22T19:58:02;98016.38;;;7.28;100.00
10474;BME280;5284;50.446;7.904;2023-02-22T20:03:04;98021.66;;;7.28;100.00
10474;BME280;5284;50.446;7.904;2023-02-22T20:08:09;98023.59;;;7.26;100.00
10474;BME280;5284;50.446;7.904;2023-02-22T20:13:13;98020.22;;;7.24;100.00
10474;BME280;5284;50.446;7.904;2023-02-22T20:18:17;98018.66;;;7.21;100.00
10474;BME280;5284;50.446;7.904;2023-02-22T20:23:23;98028.53;;;7.19;100.00
10474;BME280;5284;50.446;7.904;2023-02-22T20:28:27;98032.31;;;7.17;100.00
10474;BME280;5284;50.446;7.904;2023-02-22T20:33:30;98034.94;;;7.17;100.00
10474;BME280;5284;50.446;7.904;2023-02-22T20:38:33;98031.94;;;7.10;100.00
10474;BME280;5284;50.446;7.904;2023-02-22T20:43:37;98032.28;;;7.06;100.00
10474;BME280;5284;50.446;7.904;2023-02-22T20:48:40;98036.88;;;7.04;100.00
10474;BME280;5284;50.446;7.904;2023-02-22T20:53:44;98036.16;;;7.02;100.00
10474;BME280;5284;50.446;7.904;2023-02-22T20:58:49;98036.88;;;7.04;100.00
10474;BME280;5284;50.446;7.904;2023-02-22T21:03:52;98035.19;;;7.03;100.00
10474;BME280;5284;50.446;7.904;2023-02-22T21:08:56;98037.25;;;6.99;100.00
10474;BME280;5284;50.446;7.904;2023-02-22T21:14:02;98034.47;;;7.01;100.00
10474;BME280;5284;50.446;7.904;2023-02-22T21:19:06;98039.75;;;7.01;100.00
10474;BME280;5284;50.446;7.904;2023-02-22T21:24:10;98044.34;;;6.99;100.00
10474;BME280;5284;50.446;7.904;2023-02-22T21:29:14;98041.69;;;6.99;100.00
10474;BME280;5284;50.446;7.904;2023-02-22T21:34:16;98040.97;;;6.97;100.00
10474;BME280;5284;50.446;7.904;2023-02-22T21:39:20;98046.28;;;6.97;100.00
10474;BME280;5284;50.446;7.904;2023-02-22T21:44:29;98050.59;;;6.98;100.00
10474;BME280;5284;50.446;7.904;2023-02-22T21:49:32;98044.34;;;6.99;100.00
10474;BME280;5284;50.446;7.904;2023-02-22T21:54:35;98052.19;;;7.00;100.00
10474;BME280;5284;50.446;7.904;2023-02-22T21:59:40;98044.00;;;7.03;100.00
10474;BME280;5284;50.446;7.904;2023-02-22T22:04:43;98049.88;;;7.07;100.00
10474;BME280;5284;50.446;7.904;2023-02-22T22:09:46;98040.84;;;7.09;100.00
10474;BME280;5284;50.446;7.904;2023-02-22T22:14:58;98032.66;;;7.12;100.00
10474;BME280;5284;50.446;7.904;2023-02-22T22:20:01;98028.06;;;7.14;100.00
10474;BME280;5284;50.446;7.904;2023-02-22T22:25:06;98029.50;;;7.18;100.00
10474;BME280;5284;50.446;7.904;2023-02-22T22:30:11;98028.44;;;7.21;100.00
10474;BME280;5284;50.446;7.904;2023-02-22T22:35:16;98036.50;;;7.19;100.00
10474;BME280;5284;50.446;7.904;2023-02-22T22:40:19;98032.91;;;7.09;100.00
10474;BME280;5284;50.446;7.904;2023-02-22T22:45:23;98047.22;;;7.07;100.00
10474;BME280;5284;50.446;7.904;2023-02-22T22:50:26;98041.56;;;7.11;100.00
10474;BME280;5284;50.446;7.904;2023-02-22T22:55:30;98043.50;;;7.09;100.00
10474;BME280;5284;50.446;7.904;2023-02-22T23:00:34;98038.78;;;7.13;100.00
10474;BME280;5284;50.446;7.904;2023-02-22T23:05:39;98044.84;;;7.15;100.00
10474;BME280;5284;50.446;7.904;2023-02-22T23:10:43;98040.97;;;7.19;100.00
10474;BME280;5284;50.446;7.904;2023-02-22T23:15:48;98043.84;;;7.27;100.00
10474;BME280;5284;50.446;7.904;2023-02-22T23:20:58;98038.91;;;7.33;100.00
10474;BME280;5284;50.446;7.904;2023-02-22T23:26:07;98046.38;;;7.28;100.00
10474;BME280;5284;50.446;7.904;2023-02-22T23:31:17;98054.22;;;7.30;100.00
10474;BME280;5284;50.446;7.904;2023-02-22T23:36:22;98052.38;;;7.30;100.00
10474;BME280;5284;50.446;7.904;2023-02-22T23:41:24;98055.03;;;7.30;100.00
10474;BME280;5284;50.446;7.904;2023-02-22T23:46:31;98048.56;;;7.34;100.00
10474;BME280;5284;50.446;7.904;2023-02-22T23:51:36;98051.91;;;7.36;100.00
10474;BME280;5284;50.446;7.904;2023-02-22T23:56:41;98051.91;;;7.36;100.00
